Time;durP1;ratioP1;P1;durP2;ratioP2;P2;SDS_P1;SDS_P2;PMS_P1;PMS_P2;Temp;Humidity;BMP_temperature;BMP_pressure;BME280_temperature;BME280_humidity;BME280_pressure;Samples;Min_cycle;Max_cycle;Signal;HPM_P1;HPM_P2
2022/04/20 00:00:13;;;;;;;3.15;2.80;;;;;;;1.84;100.00;92584.75;2096578;28;20449;-80
2022/04/20 00:01:14;;;;;;;7.03;2.75;;;;;;;1.84;100.00;92587.38;2096794;28;20099;-80
2022/04/20 00:02:15;;;;;;;4.65;2.72;;;;;;;1.82;100.00;92578.34;2097288;28;20021;-79
2022/04/20 00:03:16;;;;;;;3.47;3.08;;;;;;;1.70;100.00;92582.81;2098022;28;20648;-80
2022/04/20 00:04:17;;;;;;;4.00;3.03;;;;;;;1.76;100.00;92584.00;2102760;28;20025;-79
2022/04/20 00:05:18;;;;;;;4.22;3.20;;;;;;;1.88;100.00;92585.50;2114703;28;20023;-79
2022/04/20 00:06:19;;;;;;;4.25;3.13;;;;;;;1.95;100.00;92582.91;2108404;27;20016;-79
2022/04/20 00:07:20;;;;;;;4.70;3.00;;;;;;;1.87;100.00;92584.00;2121372;27;20460;-79
2022/04/20 00:08:24;;;;;;;3.17;2.58;;;;;;;1.87;100.00;92572.72;2121330;27;20519;-80
2022/04/20 00:09:25;;;;;;;5.05;2.60;;;;;;;1.85;100.00;92573.09;2106634;28;20057;-79
2022/04/20 00:10:27;;;;;;;6.22;3.00;;;;;;;1.65;100.00;92580.56;2106163;28;20028;-80
2022/04/20 00:11:28;;;;;;;3.00;2.67;;;;;;;1.72;100.00;92574.56;2114910;28;20448;-79
2022/04/20 00:12:29;;;;;;;4.22;3.10;;;;;;;1.69;100.00;92580.56;2106155;28;20027;-80
2022/04/20 00:13:30;;;;;;;5.68;3.28;;;;;;;1.64;100.00;92573.03;2106374;28;20027;-80
2022/04/20 00:14:31;;;;;;;3.33;2.95;;;;;;;1.66;100.00;92576.78;2103807;28;20487;-80
2022/04/20 00:15:33;;;;;;;3.17;2.65;;;;;;;1.67;100.00;92572.31;2098140;28;20082;-79
2022/04/20 00:16:34;;;;;;;3.70;3.08;;;;;;;1.65;100.00;92575.28;2097785;28;20432;-79
2022/04/20 00:17:35;;;;;;;4.60;3.00;;;;;;;1.70;100.00;92574.91;2096115;28;20516;-80
2022/04/20 00:18:36;;;;;;;3.13;2.75;;;;;;;1.63;100.00;92577.56;2097917;28;20047;-80
2022/04/20 00:19:37;;;;;;;4.13;2.95;;;;;;;1.55;100.00;92573.38;2095916;28;20447;-79
2022/04/20 00:20:37;;;;;;;4.57;2.92;;;;;;;1.60;100.00;92569.63;2097931;28;20554;-79
2022/04/20 00:21:38;;;;;;;3.72;3.22;;;;;;;1.56;100.00;92574.88;2097726;28;20868;-80
2022/04/20 00:22:46;;;;;;;3.28;2.83;;;;;;;1.53;100.00;92565.09;2106141;28;20059;-80
2022/04/20 00:23:47;;;;;;;2.95;2.50;;;;;;;1.59;100.00;92566.25;2098758;28;20012;-80
2022/04/20 00:24:48;;;;;;;3.20;2.63;;;;;;;1.56;100.00;92560.97;2106000;28;20016;-80
2022/04/20 00:25:49;;;;;;;4.18;2.75;;;;;;;1.54;100.00;92565.84;2105189;28;20016;-79
2022/04/20 00:26:50;;;;;;;3.05;2.75;;;;;;;1.49;100.00;92564.31;2108093;28;20595;-81
2022/04/20 00:27:51;;;;;;;2.88;2.60;;;;;;;1.37;100.00;92568.06;2106171;28;20481;-80
2022/04/20 00:28:52;;;;;;;5.40;3.45;;;;;;;1.38;100.00;92574.06;2097872;28;20058;-80
2022/04/20 00:29:53;;;;;;;6.35;3.42;;;;;;;1.34;100.00;92574.06;2106131;28;20065;-80
2022/04/20 00:30:54;;;;;;;3.35;2.97;;;;;;;1.37;100.00;92575.22;2097785;28;20024;-80
2022/04/20 00:31:55;;;;;;;5.10;3.30;;;;;;;1.37;100.00;92572.56;2106209;28;20111;-79
2022/04/20 00:32:56;;;;;;;10.13;3.20;;;;;;;1.35;100.00;92572.19;2114624;28;20027;-80
2022/04/20 00:33:57;;;;;;;3.85;3.17;;;;;;;1.32;100.00;92573.69;2122804;27;20031;-80
2022/04/20 00:34:58;;;;;;;4.13;2.97;;;;;;;1.24;100.00;92582.69;2114286;28;20069;-80
2022/04/20 00:36:02;;;;;;;4.72;3.10;;;;;;;1.34;100.00;92570.69;2105596;27;20020;-80
2022/04/20 00:37:03;;;;;;;3.33;3.03;;;;;;;1.33;100.00;92580.47;2114795;28;20020;-80
2022/04/20 00:38:05;;;;;;;4.53;3.20;;;;;;;1.27;100.00;92568.75;2099954;28;20027;-80
2022/04/20 00:39:06;;;;;;;3.58;3.15;;;;;;;1.23;100.00;92573.28;2110392;28;20026;-80
2022/04/20 00:40:08;;;;;;;4.38;2.90;;;;;;;1.23;100.00;92571.41;2112186;28;20476;-80
2022/04/20 00:41:09;;;;;;;2.92;2.72;;;;;;;1.32;100.00;92572.91;2097811;28;20040;-80
2022/04/20 00:42:10;;;;;;;4.78;3.15;;;;;;;1.23;100.00;92574.03;2099098;28;20025;-80
2022/04/20 00:43:13;;;;;;;2.92;2.60;;;;;;;1.28;100.00;92572.16;2097319;28;20060;-79
2022/04/20 00:44:14;;;;;;;3.97;3.10;;;;;;;1.34;100.00;92574.06;2097179;28;20058;-80
2022/04/20 00:45:15;;;;;;;4.93;3.00;;;;;;;1.28;100.00;92578.19;2105137;28;20035;-80
2022/04/20 00:46:19;;;;;;;4.30;2.80;;;;;;;1.23;100.00;92563.50;2105252;28;20073;-80
2022/04/20 00:47:22;;;;;;;3.72;2.75;;;;;;;1.18;100.00;92569.09;2105515;28;20512;-79
2022/04/20 00:48:23;;;;;;;4.28;2.75;;;;;;;1.16;100.00;92570.59;2094907;28;20021;-80
2022/04/20 00:49:25;;;;;;;5.22;3.15;;;;;;;1.39;100.00;92565.81;2094279;28;20550;-79
2022/04/20 00:50:27;;;;;;;2.95;2.55;;;;;;;1.32;100.00;92562.38;2094343;28;20074;-80
2022/04/20 00:51:30;;;;;;;2.70;2.50;;;;;;;1.12;100.00;92577.72;2106110;28;20016;-80
2022/04/20 00:52:31;;;;;;;4.45;2.55;;;;;;;1.02;100.00;92570.53;2113816;28;20377;-80
2022/04/20 00:53:32;;;;;;;3.42;2.58;;;;;;;1.08;100.00;92567.19;2108834;28;20020;-79
2022/04/20 00:54:33;;;;;;;4.38;2.72;;;;;;;1.11;100.00;92565.69;2122307;27;20021;-80
2022/04/20 00:55:34;;;;;;;3.47;2.85;;;;;;;0.95;100.00;92564.09;2123625;27;20054;-80
2022/04/20 00:56:35;;;;;;;2.67;2.47;;;;;;;0.98;100.00;92568.63;2122483;27;20023;-80
2022/04/20 00:57:36;;;;;;;3.05;2.67;;;;;;;1.05;100.00;92565.28;2103888;28;20023;-80
2022/04/20 00:58:40;;;;;;;3.30;2.90;;;;;;;0.98;100.00;92560.75;2103841;28;20472;-79
2022/04/20 00:59:44;;;;;;;3.30;2.97;;;;;;;0.94;100.00;92565.22;2105478;28;20480;-80
2022/04/20 01:00:45;;;;;;;6.30;2.97;;;;;;;0.90;100.00;92559.19;2106545;27;20027;-80
2022/04/20 01:01:46;;;;;;;3.67;2.85;;;;;;;0.94;100.00;92559.97;2118007;27;20559;-80
2022/04/20 01:02:47;;;;;;;4.53;3.55;;;;;;;0.88;100.00;92560.69;2112309;28;20464;-80
2022/04/20 01:03:48;;;;;;;5.05;3.03;;;;;;;0.84;100.00;92559.94;2097434;28;20025;-80
2022/04/20 01:04:49;;;;;;;3.15;2.85;;;;;;;0.87;100.00;92559.19;2095329;28;20012;-80
2022/04/20 01:05:50;;;;;;;2.78;2.47;;;;;;;0.94;100.00;92559.22;2103657;28;20128;-80
2022/04/20 01:06:52;;;;;;;2.72;2.53;;;;;;;1.02;100.00;92571.28;2103558;28;20090;-80
2022/04/20 01:07:55;;;;;;;3.55;2.45;;;;;;;1.01;100.00;92561.91;2112654;27;20027;-80
2022/04/20 01:08:56;;;;;;;3.22;2.72;;;;;;;1.00;100.00;92563.75;2120447;27;20015;-79
2022/04/20 01:09:57;;;;;;;4.22;2.72;;;;;;;0.98;100.00;92558.13;2114202;28;20023;-81
2022/04/20 01:10:58;;;;;;;3.72;2.97;;;;;;;0.90;100.00;92566.34;2105904;28;20028;-79
2022/04/20 01:11:58;;;;;;;4.07;2.60;;;;;;;1.00;100.00;92563.00;2097614;28;20123;-79
2022/04/20 01:13:00;;;;;;;3.95;2.95;;;;;;;1.08;100.00;92555.91;2097233;28;20044;-79
2022/04/20 01:14:07;;;;;;;3.10;2.80;;;;;;;1.28;100.00;92557.13;2095590;28;20035;-79
2022/04/20 01:15:08;;;;;;;3.97;2.97;;;;;;;1.21;100.00;92557.84;2099237;28;20378;-79
2022/04/20 01:16:09;;;;;;;2.97;2.67;;;;;;;1.03;100.00;92566.78;2097544;28;20031;-79
2022/04/20 01:17:10;;;;;;;2.88;2.60;;;;;;;0.84;100.00;92563.31;2101707;28;20073;-79
2022/04/20 01:18:13;;;;;;;3.20;2.85;;;;;;;0.68;100.00;92574.09;2105033;28;20097;-79
2022/04/20 01:19:14;;;;;;;4.18;2.95;;;;;;;0.80;100.00;92557.28;2113582;27;20106;-79
2022/04/20 01:20:16;;;;;;;4.05;2.55;;;;;;;0.81;100.00;92571.94;2122577;27;20026;-80
2022/04/20 01:21:17;;;;;;;4.65;2.80;;;;;;;0.80;100.00;92564.41;2101937;28;20048;-79
2022/04/20 01:22:18;;;;;;;3.42;2.75;;;;;;;0.84;100.00;92560.69;2104083;28;20496;-78
2022/04/20 01:23:19;;;;;;;3.22;2.92;;;;;;;0.79;100.00;92568.91;2113751;28;20020;-79
2022/04/20 01:24:20;;;;;;;4.35;3.03;;;;;;;0.74;100.00;92567.38;2105654;28;20509;-79
2022/04/20 01:25:21;;;;;;;4.88;2.90;;;;;;;0.72;100.00;92566.25;2105376;28;20016;-79
2022/04/20 01:26:21;;;;;;;4.00;2.70;;;;;;;0.70;100.00;92556.09;2095613;28;20139;-79
2022/04/20 01:27:24;;;;;;;3.42;2.28;;;;;;;0.74;100.00;92564.72;2095268;28;20030;-79
2022/04/20 01:28:25;;;;;;;3.60;2.90;;;;;;;0.89;100.00;92560.31;2105829;28;20386;-80
2022/04/20 01:29:27;;;;;;;5.15;2.95;;;;;;;0.81;100.00;92558.78;2103533;28;22200;-80
2022/04/20 01:30:28;;;;;;;4.35;2.85;;;;;;;0.72;100.00;92556.47;2105814;28;20399;-79
2022/04/20 01:31:29;;;;;;;5.30;2.90;;;;;;;0.76;100.00;92553.88;2106775;28;20024;-79
2022/04/20 01:32:30;;;;;;;4.95;2.63;;;;;;;0.69;100.00;92554.56;2102346;28;20089;-79
2022/04/20 01:33:31;;;;;;;4.03;2.70;;;;;;;0.73;100.00;92547.44;2111558;28;20069;-80
2022/04/20 01:34:40;;;;;;;7.93;2.85;;;;;;;0.75;100.00;92553.13;2111210;28;20016;-79
2022/04/20 01:35:41;;;;;;;3.28;2.85;;;;;;;0.68;100.00;92553.06;2105370;28;21345;-78
2022/04/20 01:36:42;;;;;;;5.88;2.90;;;;;;;0.57;100.00;92549.63;2095066;28;20025;-79
2022/04/20 01:37:43;;;;;;;3.55;2.78;;;;;;;0.59;100.00;92554.50;2095537;28;20809;-80
2022/04/20 01:38:44;;;;;;;3.00;2.47;;;;;;;0.71;100.00;92554.97;2103994;28;20035;-81
2022/04/20 01:39:45;;;;;;;4.13;2.80;;;;;;;0.74;100.00;92546.31;2104148;28;20031;-81
2022/04/20 01:40:46;;;;;;;6.05;2.53;;;;;;;0.75;100.00;92549.72;2112248;28;20043;-79
2022/04/20 01:41:47;;;;;;;3.25;2.63;;;;;;;0.59;100.00;92544.00;2104732;28;20079;-79
2022/04/20 01:42:50;;;;;;;3.15;2.60;;;;;;;0.80;100.00;92546.75;2107892;28;20027;-80
2022/04/20 01:43:51;;;;;;;4.32;2.65;;;;;;;0.66;100.00;92546.66;2105496;28;20022;-80
2022/04/20 01:44:52;;;;;;;3.63;2.60;;;;;;;0.67;100.00;92556.06;2099188;28;20016;-79
2022/04/20 01:45:53;;;;;;;6.55;3.00;;;;;;;0.64;100.00;92552.28;2113949;27;20053;-80
2022/04/20 01:46:54;;;;;;;4.40;2.83;;;;;;;0.63;100.00;92544.78;2113747;28;20027;-79
2022/04/20 01:47:55;;;;;;;2.70;2.50;;;;;;;0.55;100.00;92543.22;2112063;28;20430;-80
2022/04/20 01:48:58;;;;;;;6.47;2.85;;;;;;;0.53;100.00;92546.22;2105576;28;20028;-80
2022/04/20 01:49:59;;;;;;;3.83;2.80;;;;;;;0.56;100.00;92545.47;2098051;28;20024;-79
2022/04/20 01:52:20;;;;;;;3.45;2.85;;;;;;;0.43;100.00;92544.25;2108741;27;20023;-81
2022/04/20 01:53:21;;;;;;;2.70;2.40;;;;;;;0.43;100.00;92539.75;2112360;28;20116;-81
2022/04/20 01:54:22;;;;;;;2.95;2.65;;;;;;;0.43;100.00;92537.13;2104108;28;20027;-81
2022/04/20 01:55:23;;;;;;;4.25;2.92;;;;;;;0.42;100.00;92543.50;2096999;28;20108;-80
2022/04/20 01:56:27;;;;;;;3.17;2.53;;;;;;;0.51;100.00;92540.56;2103634;28;20031;-78
2022/04/20 01:57:31;;;;;;;3.78;2.50;;;;;;;0.45;100.00;92537.53;2112898;28;20027;-82
2022/04/20 01:58:32;;;;;;;6.18;2.60;;;;;;;0.34;100.00;92535.94;2112589;27;20124;-79
2022/04/20 01:59:33;;;;;;;5.63;2.60;;;;;;;0.30;100.00;92538.53;2104371;28;20376;-80
2022/04/20 02:00:34;;;;;;;6.18;2.97;;;;;;;0.23;100.00;92539.25;2112290;28;20028;-79
2022/04/20 02:02:54;;;;;;;2.72;2.33;;;;;;;0.40;100.00;92531.88;2121638;27;20031;-80
2022/04/20 02:03:55;;;;;;;2.80;2.53;;;;;;;0.40;100.00;92539.75;2112558;28;20027;-78
2022/04/20 02:04:56;;;;;;;3.35;2.75;;;;;;;0.54;100.00;92539.84;2095870;28;21747;-78
2022/04/20 02:05:57;;;;;;;4.93;2.60;;;;;;;0.42;100.00;92537.50;2102399;28;20078;-79
2022/04/20 02:06:58;;;;;;;4.32;2.40;;;;;;;0.56;100.00;92536.81;2104498;28;20016;-81
2022/04/20 02:07:59;;;;;;;4.60;2.97;;;;;;;0.77;100.00;92530.94;2099060;28;20421;-80
2022/04/20 02:09:00;;;;;;;3.70;2.65;;;;;;;0.78;100.00;92529.81;2104043;28;20024;-79
2022/04/20 02:10:04;;;;;;;3.15;2.60;;;;;;;0.75;100.00;92539.97;2107650;28;20036;-81
2022/04/20 02:11:05;;;;;;;3.58;3.00;;;;;;;0.50;100.00;92539.81;2112155;28;20030;-80
2022/04/20 02:12:07;;;;;;;2.78;2.58;;;;;;;0.50;100.00;92537.19;2102415;28;20074;-81
2022/04/20 02:13:08;;;;;;;10.98;2.92;;;;;;;0.46;100.00;92538.28;2095340;28;20045;-81
2022/04/20 02:14:09;;;;;;;3.25;2.70;;;;;;;0.42;100.00;92530.34;2095282;28;20119;-80
2022/04/20 02:15:10;;;;;;;3.72;2.95;;;;;;;0.38;100.00;92532.22;2097027;28;20020;-81
2022/04/20 02:16:11;;;;;;;3.60;2.80;;;;;;;0.37;100.00;92532.59;2103947;28;20023;-79
2022/04/20 02:17:12;;;;;;;6.13;2.60;;;;;;;0.38;100.00;92537.47;2120813;27;20054;-80
2022/04/20 02:18:13;;;;;;;3.78;3.28;;;;;;;0.36;100.00;92533.72;2113674;28;20506;-80
2022/04/20 02:19:14;;;;;;;3.08;2.80;;;;;;;0.33;100.00;92532.56;2105135;28;20077;-80
2022/04/20 02:20:15;;;;;;;3.13;2.75;;;;;;;0.43;100.00;92531.88;2097098;28;20031;-79
2022/04/20 02:21:16;;;;;;;3.53;2.85;;;;;;;0.52;100.00;92522.91;2105596;28;20054;-78
2022/04/20 02:22:17;;;;;;;4.00;2.90;;;;;;;0.44;100.00;92529.97;2112915;28;20016;-80
2022/04/20 02:23:18;;;;;;;3.35;2.65;;;;;;;0.38;100.00;92532.22;2099088;28;20044;-78
2022/04/20 02:24:19;;;;;;;3.25;2.80;;;;;;;0.44;100.00;92535.25;2093449;28;20025;-80
2022/04/20 02:25:20;;;;;;;3.75;2.92;;;;;;;0.57;100.00;92531.22;2093168;28;20626;-80
2022/04/20 02:26:23;;;;;;;4.10;3.50;;;;;;;0.54;100.00;92533.81;2100123;28;20370;-80
2022/04/20 02:27:24;;;;;;;2.85;2.47;;;;;;;0.55;100.00;92532.69;2093425;28;20021;-81
2022/04/20 02:28:25;;;;;;;3.90;2.90;;;;;;;0.63;100.00;92531.63;2098275;28;20027;-80
2022/04/20 02:29:26;;;;;;;4.32;3.00;;;;;;;0.63;100.00;92529.75;2105073;28;20502;-80
2022/04/20 02:30:27;;;;;;;4.25;2.58;;;;;;;0.71;100.00;92531.28;2100349;28;20024;-80
2022/04/20 02:31:28;;;;;;;4.10;3.20;;;;;;;0.50;100.00;92539.06;2105378;28;20016;-80
2022/04/20 02:32:29;;;;;;;4.07;3.67;;;;;;;0.39;100.00;92536.34;2103950;28;20016;-79
2022/04/20 02:33:29;;;;;;;2.95;2.65;;;;;;;0.39;100.00;92531.09;2120672;28;20020;-79
2022/04/20 02:34:30;;;;;;;4.13;2.80;;;;;;;0.47;100.00;92532.63;2128044;27;20022;-79
2022/04/20 02:35:32;;;;;;;3.42;3.13;;;;;;;0.33;100.00;92532.56;2111527;28;20015;-81
2022/04/20 02:36:33;;;;;;;7.00;3.13;;;;;;;0.31;100.00;92528.78;2104872;28;20104;-79
2022/04/20 02:37:35;;;;;;;3.10;2.88;;;;;;;0.35;100.00;92538.22;2104831;28;20020;-80
2022/04/20 02:38:38;;;;;;;3.58;3.10;;;;;;;0.34;100.00;92528.78;2103314;28;20020;-79
2022/04/20 02:39:40;;;;;;;6.43;3.13;;;;;;;0.38;100.00;92529.59;2108670;28;20539;-80
2022/04/20 02:40:42;;;;;;;4.38;3.55;;;;;;;0.36;100.00;92529.19;2101432;28;20021;-80
2022/04/20 02:41:43;;;;;;;4.07;2.90;;;;;;;0.38;100.00;92526.94;2096695;28;20029;-81
2022/04/20 02:42:45;;;;;;;6.22;2.80;;;;;;;0.33;100.00;92531.81;2096699;28;20028;-80
2022/04/20 02:43:48;;;;;;;5.85;2.92;;;;;;;0.33;100.00;92529.94;2104508;28;20016;-80
2022/04/20 02:44:49;;;;;;;4.25;3.20;;;;;;;0.42;100.00;92534.88;2104416;28;20013;-80
2022/04/20 02:45:50;;;;;;;3.95;3.08;;;;;;;0.38;100.00;92524.31;2104365;28;20036;-79
2022/04/20 02:46:51;;;;;;;3.10;2.80;;;;;;;0.33;100.00;92529.94;2105121;28;20032;-80
2022/04/20 02:47:52;;;;;;;5.05;3.50;;;;;;;0.42;100.00;92526.97;2111354;28;20020;-79
2022/04/20 02:48:53;;;;;;;5.88;3.20;;;;;;;0.38;100.00;92521.69;2102840;28;20044;-79
2022/04/20 02:49:54;;;;;;;6.22;3.13;;;;;;;0.42;100.00;92524.34;2099541;28;20024;-80
2022/04/20 02:50:55;;;;;;;6.93;3.20;;;;;;;0.38;100.00;92521.69;2103231;28;20031;-80
2022/04/20 02:51:56;;;;;;;5.47;3.10;;;;;;;0.49;100.00;92521.78;2102016;28;20043;-80
2022/04/20 02:52:57;;;;;;;4.90;2.90;;;;;;;0.47;100.00;92527.38;2104599;28;20024;-80
2022/04/20 02:53:58;;;;;;;3.25;2.90;;;;;;;0.49;100.00;92517.28;2092955;28;20017;-79
2022/04/20 02:54:59;;;;;;;4.82;2.90;;;;;;;0.58;100.00;92516.19;2104723;28;20023;-80
2022/04/20 02:56:00;;;;;;;4.05;3.17;;;;;;;0.75;100.00;92516.28;2121442;28;20023;-80
2022/04/20 02:57:01;;;;;;;5.22;3.25;;;;;;;0.69;100.00;92503.84;2122465;28;20068;-80
2022/04/20 02:58:02;;;;;;;8.25;3.55;;;;;;;0.72;100.00;92518.91;2113583;28;20465;-80
2022/04/20 02:59:03;;;;;;;5.47;3.25;;;;;;;0.73;100.00;92518.50;2093339;28;20103;-79
2022/04/20 03:00:05;;;;;;;3.95;3.10;;;;;;;0.61;100.00;92518.81;2102641;28;20024;-80
2022/04/20 03:01:06;;;;;;;4.00;3.47;;;;;;;0.42;100.00;92514.59;2108149;28;20020;-81
2022/04/20 03:02:07;;;;;;;4.10;2.97;;;;;;;0.31;100.00;92519.03;2112629;28;20495;-78
2022/04/20 03:03:09;;;;;;;3.83;3.20;;;;;;;0.31;100.00;92511.16;2107479;28;20024;-80
2022/04/20 03:04:10;;;;;;;3.95;3.05;;;;;;;0.36;100.00;92510.81;2107706;27;20122;-81
2022/04/20 03:05:11;;;;;;;5.15;3.05;;;;;;;0.39;100.00;92515.31;2112768;28;20512;-81
2022/04/20 03:06:12;;;;;;;7.32;3.53;;;;;;;0.29;100.00;92516.00;2106390;28;20020;-79
2022/04/20 03:07:15;;;;;;;2.90;2.70;;;;;;;0.20;100.00;92513.69;2105934;28;20024;-78
2022/04/20 03:08:16;;;;;;;5.38;3.13;;;;;;;0.14;100.00;92512.53;2104178;28;20496;-81
2022/04/20 03:09:17;;;;;;;4.63;3.00;;;;;;;0.09;100.00;92507.63;2096804;28;20051;-80
2022/04/20 03:10:18;;;;;;;7.13;3.22;;;;;;;0.21;100.00;92509.94;2096237;28;20565;-78
2022/04/20 03:11:19;;;;;;;3.78;3.00;;;;;;;0.22;100.00;92515.94;2103652;28;20439;-80
2022/04/20 03:12:20;;;;;;;5.22;2.90;;;;;;;0.34;100.00;92515.66;2105778;28;20043;-79
2022/04/20 03:13:21;;;;;;;2.95;2.65;;;;;;;0.34;100.00;92510.41;2104477;28;20481;-81
2022/04/20 03:14:22;;;;;;;3.88;2.95;;;;;;;0.32;100.00;92510.03;2121330;28;20023;-79
2022/04/20 03:15:23;;;;;;;3.75;2.70;;;;;;;0.23;100.00;92509.59;2112043;28;20073;-79
2022/04/20 03:16:25;;;;;;;2.90;2.70;;;;;;;0.16;100.00;92506.91;2097963;28;20024;-80
2022/04/20 03:17:26;;;;;;;3.90;3.17;;;;;;;0.48;100.00;92501.84;2098331;28;20820;-79
2022/04/20 03:18:31;;;;;;;3.25;2.95;;;;;;;0.48;100.00;92512.34;2106602;28;20024;-79
2022/04/20 03:19:33;;;;;;;6.18;2.53;;;;;;;0.39;100.00;92511.94;2113055;28;20015;-78
2022/04/20 03:20:35;;;;;;;3.33;3.03;;;;;;;0.31;100.00;92505.91;2106275;28;20023;-79
2022/04/20 03:21:36;;;;;;;5.18;3.30;;;;;;;0.22;100.00;92508.06;2115280;27;20114;-79
2022/04/20 03:22:37;;;;;;;4.05;3.00;;;;;;;0.20;100.00;92510.31;2115080;28;20016;-81
2022/04/20 03:23:38;;;;;;;3.00;2.75;;;;;;;0.24;100.00;92503.97;2106606;28;20012;-78
2022/04/20 03:24:39;;;;;;;5.47;3.17;;;;;;;0.18;100.00;92510.69;2106496;28;20099;-82
2022/04/20 03:25:41;;;;;;;5.50;3.13;;;;;;;0.19;100.00;92506.94;2114447;28;20488;-79
2022/04/20 03:26:42;;;;;;;5.00;3.10;;;;;;;0.23;100.00;92509.59;2103735;28;20063;-79
2022/04/20 03:27:54;;;;;;;4.28;3.13;;;;;;;0.19;100.00;92509.56;2096520;28;20017;-80
2022/04/20 03:28:55;;;;;;;3.15;2.85;;;;;;;0.30;100.00;92509.63;2099310;28;20093;-80
2022/04/20 03:29:56;;;;;;;5.30;3.17;;;;;;;0.41;100.00;92513.09;2094395;28;20020;-80
2022/04/20 03:31:00;;;;;;;3.67;3.17;;;;;;;0.52;100.00;92515.78;2106580;28;20024;-81
2022/04/20 03:32:09;;;;;;;4.07;3.17;;;;;;;0.40;100.00;92511.59;2115807;27;20061;-80
2022/04/20 03:33:11;;;;;;;3.15;2.80;;;;;;;0.33;100.00;92513.41;2115002;28;20026;-79
2022/04/20 03:34:13;;;;;;;5.97;3.03;;;;;;;0.34;100.00;92513.03;2106702;28;20111;-79
2022/04/20 03:35:14;;;;;;;3.65;3.33;;;;;;;0.41;100.00;92504.44;2105782;27;20024;-79
2022/04/20 03:36:16;;;;;;;5.72;3.45;;;;;;;0.56;100.00;92506.03;2106819;28;20527;-80
2022/04/20 03:37:17;;;;;;;3.70;3.10;;;;;;;0.49;100.00;92509.38;2105665;28;20023;-80
2022/04/20 03:38:18;;;;;;;3.65;3.08;;;;;;;0.37;100.00;92514.19;2105708;28;20115;-79
2022/04/20 03:39:19;;;;;;;4.43;3.50;;;;;;;0.38;100.00;92518.31;2106369;28;20016;-80
2022/04/20 03:40:20;;;;;;;6.10;4.03;;;;;;;0.24;100.00;92513.72;2099856;28;20021;-80
2022/04/20 03:41:22;;;;;;;3.60;3.30;;;;;;;0.27;100.00;92518.25;2095704;28;20577;-80
2022/04/20 03:42:23;;;;;;;3.47;2.88;;;;;;;0.21;100.00;92522.31;2098190;28;20021;-80
2022/04/20 03:43:24;;;;;;;3.88;2.97;;;;;;;0.30;100.00;92514.13;2098105;28;20031;-79
2022/04/20 03:44:26;;;;;;;4.03;3.42;;;;;;;0.17;100.00;92514.41;2114874;28;20023;-81
2022/04/20 03:45:27;;;;;;;4.85;3.22;;;;;;;0.14;100.00;92523.03;2109766;28;20081;-80
2022/04/20 03:46:28;;;;;;;7.57;3.45;;;;;;;0.17;100.00;92503.16;2095733;28;20358;-79
2022/04/20 03:47:29;;;;;;;4.28;3.60;;;;;;;0.17;100.00;92508.41;2104766;28;20031;-80
2022/04/20 03:48:30;;;;;;;5.22;3.42;;;;;;;0.11;100.00;92515.88;2105566;28;20043;-80
2022/04/20 03:49:31;;;;;;;3.92;3.22;;;;;;;0.03;100.00;92518.81;2113345;28;20027;-78
2022/04/20 03:50:32;;;;;;;3.72;3.42;;;;;;;0.08;100.00;92513.97;2107756;28;20023;-79
2022/04/20 03:51:33;;;;;;;4.90;3.38;;;;;;;0.20;100.00;92513.69;2095942;28;20539;-79
2022/04/20 03:52:38;;;;;;;3.80;3.40;;;;;;;0.16;100.00;92520.78;2096923;28;20028;-81
2022/04/20 03:53:39;;;;;;;5.50;3.30;;;;;;;0.16;100.00;92522.66;2098058;28;20016;-79
2022/04/20 03:54:40;;;;;;;11.60;3.85;;;;;;;0.13;100.00;92521.53;2105373;28;20024;-81
2022/04/20 03:55:41;;;;;;;5.93;3.72;;;;;;;0.18;100.00;92518.56;2123297;27;20043;-79
2022/04/20 03:58:02;;;;;;;3.85;3.17;;;;;;;0.25;100.00;92520.47;2109670;27;20028;-80
2022/04/20 03:59:03;;;;;;;3.40;3.03;;;;;;;0.20;100.00;92520.81;2110647;28;20076;-80
2022/04/20 04:00:05;;;;;;;3.58;3.28;;;;;;;0.16;100.00;92520.03;2113725;28;20027;-81
2022/04/20 04:01:06;;;;;;;4.10;2.88;;;;;;;0.22;100.00;92515.94;2096268;28;20012;-80
2022/04/20 04:02:07;;;;;;;7.00;3.35;;;;;;;0.20;100.00;92523.44;2096681;28;20056;-79
2022/04/20 04:03:08;;;;;;;3.90;3.00;;;;;;;0.25;100.00;92521.22;2096976;28;20111;-80
2022/04/20 04:04:10;;;;;;;3.80;3.30;;;;;;;0.21;100.00;92519.69;2097896;28;20020;-80
2022/04/20 04:05:11;;;;;;;4.72;3.05;;;;;;;0.33;100.00;92521.28;2103319;28;20133;-79
2022/04/20 04:06:11;;;;;;;6.50;3.10;;;;;;;0.36;100.00;92526.56;2101662;28;20040;-78
2022/04/20 04:07:13;;;;;;;4.72;3.17;;;;;;;0.23;100.00;92534.00;2102801;28;20562;-81
2022/04/20 04:08:14;;;;;;;3.17;2.88;;;;;;;0.24;100.00;92530.25;2099193;28;20499;-78
2022/04/20 04:09:17;;;;;;;5.05;3.20;;;;;;;0.32;100.00;92525.78;2114541;28;20028;-78
2022/04/20 04:10:18;;;;;;;3.17;2.88;;;;;;;0.22;100.00;92527.22;2106467;28;20494;-81
2022/04/20 04:11:19;;;;;;;3.38;3.08;;;;;;;0.15;100.00;92521.16;2106029;28;20504;-80
2022/04/20 04:12:26;;;;;;;3.30;2.80;;;;;;;0.07;100.00;92528.22;2121017;27;20022;-80
2022/04/20 04:13:27;;;;;;;3.92;2.80;;;;;;;0.18;100.00;92525.69;2106075;28;20381;-78
2022/04/20 04:14:28;;;;;;;6.03;3.50;;;;;;;0.27;100.00;92523.50;2103466;28;20055;-80
2022/04/20 04:15:29;;;;;;;4.15;3.53;;;;;;;0.18;100.00;92520.44;2106067;28;20473;-79
2022/04/20 04:16:30;;;;;;;3.30;3.00;;;;;;;0.10;100.00;92532.00;2106366;28;20027;-80
2022/04/20 04:17:32;;;;;;;4.40;3.17;;;;;;;0.17;100.00;92527.53;2114761;28;20023;-80
2022/04/20 04:18:33;;;;;;;4.22;3.28;;;;;;;0.21;100.00;92528.34;2105732;28;20027;-80
2022/04/20 04:19:35;;;;;;;4.65;2.90;;;;;;;0.08;100.00;92536.88;2098865;28;20016;-81
2022/04/20 04:20:36;;;;;;;4.57;2.67;;;;;;;0.09;100.00;92527.84;2101402;27;20385;-79
2022/04/20 04:21:38;;;;;;;3.80;2.92;;;;;;;0.05;100.00;92522.59;2099447;28;20023;-79
2022/04/20 04:22:39;;;;;;;4.40;3.00;;;;;;;0.10;100.00;92524.13;2106362;28;20027;-78
2022/04/20 04:23:39;;;;;;;5.55;3.13;;;;;;;0.18;100.00;92530.97;2105889;28;20016;-80
2022/04/20 04:24:40;;;;;;;6.35;3.00;;;;;;;0.25;100.00;92528.38;2114466;28;20069;-79
2022/04/20 04:25:43;;;;;;;3.28;2.95;;;;;;;0.12;100.00;92527.13;2097257;28;20762;-79
2022/04/20 04:26:44;;;;;;;4.15;2.85;;;;;;;0.17;100.00;92524.16;2097147;28;20009;-79
2022/04/20 04:27:46;;;;;;;4.18;3.20;;;;;;;0.20;100.00;92529.47;2105993;28;20031;-79
2022/04/20 04:28:47;;;;;;;3.33;3.03;;;;;;;0.30;100.00;92529.91;2103899;28;20028;-79
2022/04/20 04:29:51;;;;;;;5.63;3.10;;;;;;;0.33;100.00;92523.91;2096532;28;20457;-79
2022/04/20 04:30:52;;;;;;;3.30;3.00;;;;;;;0.19;100.00;92525.31;2098120;28;20530;-80
2022/04/20 04:31:54;;;;;;;4.95;3.30;;;;;;;0.16;100.00;92528.66;2093764;28;20032;-79
2022/04/20 04:32:55;;;;;;;3.50;3.20;;;;;;;0.03;100.00;92529.31;2095242;28;20739;-80
2022/04/20 04:33:56;;;;;;;3.40;3.10;;;;;;;0.11;100.00;92529.00;2093383;28;20031;-80
2022/04/20 04:34:57;;;;;;;3.35;3.05;;;;;;;0.13;100.00;92533.91;2104668;28;20052;-79
2022/04/20 04:35:57;;;;;;;3.70;3.40;;;;;;;0.06;100.00;92528.59;2105991;28;20024;-80
2022/04/20 04:36:58;;;;;;;3.40;3.10;;;;;;;0.09;100.00;92533.88;2110402;28;20090;-80
2022/04/20 04:37:59;;;;;;;3.88;3.47;;;;;;;0.11;100.00;92523.75;2103892;28;20865;-79
2022/04/20 04:39:00;;;;;;;4.70;3.35;;;;;;;0.08;100.00;92527.09;2105134;28;20032;-80
2022/04/20 04:40:03;;;;;;;4.45;3.40;;;;;;;0.27;100.00;92531.41;2104706;28;20085;-80
2022/04/20 04:41:04;;;;;;;4.07;3.58;;;;;;;0.17;100.00;92519.66;2100311;28;20103;-79
2022/04/20 04:42:06;;;;;;;3.85;3.33;;;;;;;0.13;100.00;92521.53;2096656;28;20044;-81
2022/04/20 04:43:07;;;;;;;5.28;3.40;;;;;;;0.15;100.00;92526.41;2104692;28;20809;-81
2022/04/20 04:44:08;;;;;;;3.47;3.17;;;;;;;0.11;100.00;92523.00;2117880;27;20027;-79
2022/04/20 04:49:08;;;;;;;3.13;2.85;;;;;;;0.14;100.00;92523.03;2107167;28;20446;-79
2022/04/20 04:50:15;;;;;;;3.42;2.75;;;;;;;0.20;100.00;92521.56;2097743;28;20031;-79
2022/04/20 04:51:16;;;;;;;3.88;2.75;;;;;;;0.22;100.00;92526.44;2094346;28;20020;-79
2022/04/20 04:52:18;;;;;;;4.32;3.50;;;;;;;0.12;100.00;92519.25;2092652;28;20016;-80
2022/04/20 04:53:19;;;;;;;3.70;3.40;;;;;;;0.17;100.00;92517.03;2105474;28;20110;-80
2022/04/20 04:54:20;;;;;;;5.40;3.53;;;;;;;0.22;100.00;92523.81;2112992;28;20031;-81
2022/04/20 04:55:20;;;;;;;4.15;3.17;;;;;;;0.33;100.00;92522.03;2104587;28;20020;-81
2022/04/20 04:56:21;;;;;;;3.72;3.35;;;;;;;0.35;100.00;92521.66;2100570;28;20042;-79
2022/04/20 04:57:22;;;;;;;4.35;3.92;;;;;;;0.31;100.00;92526.91;2105656;28;20633;-80